createdAt,value
2023-03-23T15:59:46.731Z,21.61
2023-03-23T16:02:13.167Z,21.71
2023-03-23T16:04:40.066Z,22.01
2023-03-23T16:09:33.776Z,22.55
2023-03-23T16:12:00.151Z,22.49
2023-03-23T16:14:26.539Z,22.44
2023-03-23T16:16:53.095Z,22.28
2023-03-23T16:19:19.569Z,22.15
2023-03-23T16:21:45.928Z,22.09
2023-03-23T16:24:12.337Z,21.99
2023-03-23T16:26:38.725Z,22.01
2023-03-23T16:29:12.951Z,22.02
2023-03-23T16:31:43.578Z,21.97
2023-03-23T16:34:10.019Z,21.92
2023-03-23T16:36:36.418Z,21.69
2023-03-23T16:39:02.882Z,21.60
2023-03-23T16:41:29.268Z,21.53
2023-03-23T16:43:55.610Z,21.48
2023-03-23T16:46:22.053Z,21.31
2023-03-23T16:48:48.426Z,21.17
2023-03-23T16:51:14.833Z,21.06
2023-03-23T16:53:41.238Z,21.13
2023-03-23T16:56:07.621Z,21.00
2023-03-23T16:58:33.988Z,20.58
2023-03-23T17:01:00.339Z,20.45
2023-03-23T17:03:26.849Z,20.13
2023-03-23T17:05:53.317Z,20.17
2023-03-23T17:08:19.700Z,20.45
2023-03-23T17:10:46.086Z,20.56
2023-03-23T17:13:12.481Z,20.64
2023-03-23T17:15:38.871Z,20.69
2023-03-23T17:18:05.342Z,20.51
2023-03-23T17:20:31.890Z,20.50
2023-03-23T17:22:58.309Z,20.45
2023-03-23T17:25:24.768Z,20.38
2023-03-23T17:27:51.151Z,20.40
2023-03-23T17:30:17.519Z,20.18
2023-03-23T17:32:43.935Z,20.13
2023-03-23T17:35:10.307Z,20.11
2023-03-23T17:37:36.676Z,20.04
2023-03-23T17:40:03.040Z,19.97
2023-03-23T17:42:29.394Z,19.92
2023-03-23T17:44:55.798Z,20.06
2023-03-23T17:47:22.187Z,20.10
2023-03-23T17:49:48.543Z,20.11
2023-03-23T17:52:14.910Z,19.91
2023-03-23T17:54:41.306Z,19.91
2023-03-23T17:57:07.733Z,20.05
2023-03-23T17:59:34.295Z,19.80
2023-03-23T18:02:00.794Z,19.83
2023-03-23T18:04:27.172Z,19.89
2023-03-23T18:06:53.556Z,19.86
2023-03-23T18:09:20.025Z,19.96
2023-03-23T18:11:46.751Z,19.93
2023-03-23T18:14:13.204Z,19.92
2023-03-23T18:16:39.650Z,19.92
2023-03-23T18:19:06.070Z,19.84
2023-03-23T18:21:32.684Z,19.83
2023-03-23T18:23:59.995Z,19.88
2023-03-23T18:26:26.580Z,19.94
2023-03-23T18:28:52.963Z,19.89
2023-03-23T18:31:19.574Z,19.86
2023-03-23T18:33:46.017Z,19.85
2023-03-23T18:36:12.454Z,19.67
2023-03-23T18:38:39.474Z,19.56
2023-03-23T18:41:05.882Z,19.77
2023-03-23T18:43:32.316Z,19.39
2023-03-23T18:45:58.710Z,19.09
2023-03-23T18:48:25.177Z,19.16
2023-03-23T18:50:51.857Z,19.00
2023-03-23T18:53:18.324Z,18.83
2023-03-23T18:55:44.870Z,18.70
2023-03-23T18:58:11.453Z,18.98
2023-03-23T19:00:37.821Z,18.84
2023-03-23T19:03:04.249Z,18.82
2023-03-23T19:05:30.863Z,18.75
2023-03-23T19:07:57.341Z,18.60
2023-03-23T19:10:23.811Z,18.75
2023-03-23T19:12:50.258Z,18.83
2023-03-23T19:15:16.654Z,18.63
2023-03-23T19:17:43.081Z,18.72
2023-03-23T19:22:37.707Z,19.11
2023-03-23T19:25:04.111Z,19.21
2023-03-23T19:27:31.375Z,19.23
2023-03-23T19:29:57.787Z,19.22
2023-03-23T19:32:24.260Z,19.00
2023-03-23T19:34:51.334Z,18.75
2023-03-23T19:37:17.905Z,18.81
2023-03-23T19:39:44.321Z,19.03
2023-03-23T19:42:10.692Z,18.85
2023-03-23T19:44:37.103Z,19.03
2023-03-23T19:47:03.717Z,19.05
2023-03-23T19:49:30.197Z,19.00
2023-03-23T19:52:07.251Z,19.03
2023-03-23T19:54:38.322Z,19.00
2023-03-23T19:57:04.745Z,18.89
2023-03-23T19:59:31.183Z,18.65
2023-03-23T20:01:57.979Z,18.32
2023-03-23T20:04:26.282Z,18.21
2023-03-23T20:06:56.341Z,18.09
2023-03-23T20:09:25.127Z,17.84
2023-03-23T20:11:52.010Z,18.02
2023-03-23T20:14:18.407Z,17.85
2023-03-23T20:16:44.777Z,17.63
2023-03-23T20:19:11.139Z,17.69
2023-03-23T20:21:39.067Z,16.95
2023-03-23T20:24:06.008Z,16.92
2023-03-23T20:26:32.476Z,17.28
2023-03-23T20:28:59.094Z,16.93
2023-03-23T20:31:26.531Z,16.66
2023-03-23T20:34:00.648Z,16.25
2023-03-23T20:36:27.919Z,16.40
2023-03-23T20:38:54.461Z,16.41
2023-03-23T20:41:20.813Z,15.80
2023-03-23T20:43:47.177Z,15.85
2023-03-23T20:46:13.565Z,16.09
2023-03-23T20:48:39.998Z,16.28
2023-03-23T20:51:06.402Z,16.62
2023-03-23T20:53:32.809Z,16.70
2023-03-23T20:55:59.210Z,17.09
2023-03-23T20:58:25.890Z,17.04
2023-03-23T21:00:52.335Z,16.66
2023-03-23T21:03:18.780Z,16.62
2023-03-23T21:05:45.396Z,16.48
2023-03-23T21:08:12.231Z,16.52
2023-03-23T21:10:38.598Z,16.85
2023-03-23T21:13:05.155Z,16.78
2023-03-23T21:15:31.779Z,16.88
2023-03-23T21:17:58.547Z,17.38
2023-03-23T21:20:27.048Z,16.73
2023-03-23T21:22:53.740Z,17.10
2023-03-23T21:25:20.224Z,17.52
2023-03-23T21:27:48.423Z,16.98
2023-03-23T21:30:14.880Z,16.89
2023-03-23T21:32:41.299Z,17.03
2023-03-23T21:35:07.691Z,17.47
2023-03-23T21:37:34.110Z,17.32
2023-03-23T21:40:01.702Z,17.40
2023-03-23T21:42:28.104Z,17.77
2023-03-23T21:44:56.434Z,17.88
2023-03-23T21:47:24.760Z,17.59
2023-03-23T21:49:51.129Z,17.74
2023-03-23T21:52:20.373Z,17.77
2023-03-23T21:54:46.848Z,17.69
2023-03-23T21:57:13.353Z,17.64
2023-03-23T21:59:39.765Z,17.23
2023-03-23T22:02:06.268Z,16.83
2023-03-23T22:04:32.779Z,16.92
2023-03-23T22:06:59.151Z,16.74
2023-03-23T22:09:25.594Z,16.24
2023-03-23T22:11:51.970Z,16.40
2023-03-23T22:14:18.442Z,16.55
2023-03-23T22:16:44.849Z,16.02
2023-03-23T22:19:11.251Z,16.00
2023-03-23T22:21:37.672Z,16.15
2023-03-23T22:24:04.037Z,15.62
2023-03-23T22:26:30.411Z,15.68
2023-03-23T22:28:56.828Z,15.46
2023-03-23T22:31:23.255Z,15.55
2023-03-23T22:33:49.621Z,16.06
2023-03-23T22:36:16.028Z,15.77
2023-03-23T22:38:42.405Z,15.97
2023-03-23T22:41:08.839Z,15.66
2023-03-23T22:43:35.206Z,15.97
2023-03-23T22:46:01.699Z,16.20
2023-03-23T22:48:28.091Z,16.18
2023-03-23T22:50:54.462Z,16.75
2023-03-23T22:53:20.873Z,16.41
2023-03-23T22:55:47.228Z,16.19
2023-03-23T22:58:13.678Z,16.07
2023-03-23T23:00:40.124Z,16.19
2023-03-23T23:03:06.716Z,16.45
2023-03-23T23:05:33.151Z,16.65
2023-03-23T23:07:59.556Z,16.51
2023-03-23T23:10:25.931Z,16.40
2023-03-23T23:12:52.313Z,16.65
2023-03-23T23:15:18.788Z,16.11
2023-03-23T23:17:45.304Z,16.47
2023-03-23T23:20:11.702Z,16.76
2023-03-23T23:22:38.084Z,16.65
2023-03-23T23:25:04.473Z,16.68
2023-03-23T23:27:30.849Z,16.41
2023-03-23T23:29:57.213Z,16.96
2023-03-23T23:32:23.635Z,17.33
2023-03-23T23:34:50.071Z,16.95
2023-03-23T23:37:16.544Z,16.91
2023-03-23T23:39:42.935Z,17.11
2023-03-23T23:42:09.315Z,17.37
2023-03-23T23:44:35.697Z,17.38
2023-03-23T23:47:02.141Z,16.56
2023-03-23T23:49:28.745Z,16.63
2023-03-23T23:51:55.220Z,16.15
2023-03-23T23:54:21.609Z,16.60
2023-03-23T23:56:48.040Z,16.11
2023-03-23T23:59:14.429Z,15.74
